Time;durP1;ratioP1;P1;durP2;ratioP2;P2;SDS_P1;SDS_P2;PMS_P1;PMS_P2;Temp;Humidity;BMP_temperature;BMP_pressure;BME280_temperature;BME280_humidity;BME280_pressure;Samples;Min_cycle;Max_cycle;Signal;HPM_P1;HPM_P2
2021/06/07 00:03:00;;;;;;;20.73;15.32;;;;;;;17.11;100.00;94820.53;10448396;28;20385;-78
2021/06/07 00:08:00;;;;;;;18.27;14.20;;;;;;;17.16;100.00;94817.66;10448454;28;20138;-79
2021/06/07 00:13:02;;;;;;;25.23;16.83;;;;;;;17.23;100.00;94817.22;10448467;28;20028;-79
2021/06/07 00:18:03;;;;;;;19.40;14.13;;;;;;;17.22;100.00;94815.63;10448234;28;20275;-78
2021/06/07 00:23:05;;;;;;;24.02;14.85;;;;;;;17.12;100.00;94815.88;10447233;28;20041;-79
2021/06/07 00:28:06;;;;;;;24.45;15.00;;;;;;;17.03;100.00;94813.94;10445287;28;20052;-79
2021/06/07 00:33:07;;;;;;;18.48;14.80;;;;;;;17.10;100.00;94802.63;10450093;28;20052;-79
2021/06/07 00:38:07;;;;;;;23.30;16.40;;;;;;;16.90;100.00;94806.69;10450477;28;20020;-79
2021/06/07 00:43:08;;;;;;;23.45;15.25;;;;;;;16.97;100.00;94806.22;10445203;28;20023;-80
2021/06/07 00:48:10;;;;;;;16.65;13.70;;;;;;;17.02;100.00;94803.38;10445730;28;20086;-80
2021/06/07 00:53:13;;;;;;;19.80;15.00;;;;;;;16.98;100.00;94814.09;10444809;28;20554;-80
2021/06/07 00:58:16;;;;;;;21.90;14.45;;;;;;;17.10;100.00;94813.50;10445444;28;20017;-80
2021/06/07 01:03:18;;;;;;;19.75;14.45;;;;;;;16.94;100.00;94809.56;10445587;28;20043;-80
2021/06/07 01:08:20;;;;;;;20.52;15.55;;;;;;;16.84;100.00;94799.75;10444006;28;20567;-80
2021/06/07 01:13:22;;;;;;;18.13;14.82;;;;;;;16.87;100.00;94804.56;10445551;28;20108;-80
2021/06/07 01:18:24;;;;;;;17.83;14.73;;;;;;;16.77;100.00;94810.25;10445572;28;20696;-80
2021/06/07 01:23:24;;;;;;;22.90;15.20;;;;;;;16.83;100.00;94803.56;10443726;28;20181;-80
2021/06/07 01:28:25;;;;;;;22.60;15.03;;;;;;;16.69;100.00;94803.69;10444679;28;20118;-80
2021/06/07 01:33:27;;;;;;;26.42;14.77;;;;;;;16.81;100.00;94803.88;10444408;28;20276;-80
2021/06/07 01:38:28;;;;;;;18.63;14.45;;;;;;;16.82;100.00;94791.91;10445167;28;20076;-79
2021/06/07 01:43:30;;;;;;;18.52;14.18;;;;;;;16.62;100.00;94806.00;10445433;28;20036;-80
2021/06/07 01:48:31;;;;;;;17.50;14.18;;;;;;;16.82;100.00;94807.41;10444918;28;20021;-80
2021/06/07 01:53:32;;;;;;;18.98;14.43;;;;;;;16.86;100.00;94811.13;10453239;28;20025;-80
2021/06/07 01:58:33;;;;;;;21.00;15.80;;;;;;;16.70;100.00;94807.97;10452744;28;20400;-80
2021/06/07 02:03:34;;;;;;;20.15;14.40;;;;;;;16.73;100.00;94812.78;10451721;28;20056;-80
2021/06/07 02:08:34;;;;;;;20.80;15.80;;;;;;;16.77;100.00;94811.03;10451752;28;20099;-80
2021/06/07 02:13:36;;;;;;;19.65;14.65;;;;;;;16.80;100.00;94805.03;10452364;28;20036;-80
2021/06/07 02:18:37;;;;;;;19.75;15.52;;;;;;;16.69;100.00;94809.91;10450909;28;20400;-80
2021/06/07 02:23:38;;;;;;;23.83;16.30;;;;;;;16.67;100.00;94811.31;10451064;28;20552;-80
2021/06/07 02:28:49;;;;;;;21.38;16.70;;;;;;;16.61;100.00;94812.56;10450975;28;20049;-80
2021/06/07 02:33:51;;;;;;;23.42;16.75;;;;;;;16.68;100.00;94810.22;10449463;28;20108;-80
2021/06/07 02:38:53;;;;;;;28.08;16.15;;;;;;;16.69;100.00;94809.09;10447831;28;20028;-80
2021/06/07 02:43:53;;;;;;;26.92;16.67;;;;;;;16.77;100.00;94811.03;10448847;28;20025;-80
2021/06/07 02:48:54;;;;;;;20.40;16.08;;;;;;;16.65;100.00;94802.69;10448498;28;20025;-80
2021/06/07 02:53:54;;;;;;;29.93;18.73;;;;;;;16.53;100.00;94811.38;10448439;28;20029;-80
2021/06/07 02:58:55;;;;;;;26.53;18.60;;;;;;;16.58;100.00;94811.25;10445521;28;20078;-79
2021/06/07 03:03:55;;;;;;;24.35;16.55;;;;;;;16.67;100.00;94808.59;10446924;28;20287;-79
2021/06/07 03:08:55;;;;;;;23.03;16.20;;;;;;;16.74;100.00;94806.25;10447266;28;20025;-79
2021/06/07 03:13:56;;;;;;;24.20;16.17;;;;;;;16.74;100.00;94817.91;10446185;28;20267;-80
2021/06/07 03:18:56;;;;;;;21.98;16.05;;;;;;;16.74;100.00;94815.22;10446269;28;20272;-79
2021/06/07 03:23:57;;;;;;;22.20;15.93;;;;;;;16.84;100.00;94811.44;10447267;28;20068;-79
2021/06/07 03:28:57;;;;;;;29.33;18.70;;;;;;;16.84;100.00;94824.19;10447293;28;20045;-79
2021/06/07 03:33:57;;;;;;;27.13;17.50;;;;;;;16.88;100.00;94825.16;10445863;28;20278;-79
2021/06/07 03:38:59;;;;;;;23.70;16.93;;;;;;;17.02;100.00;94823.22;10445549;28;20029;-80
2021/06/07 03:43:59;;;;;;;21.05;15.77;;;;;;;17.08;100.00;94824.66;10445420;28;20374;-81
2021/06/07 03:48:59;;;;;;;29.33;16.53;;;;;;;17.26;100.00;94824.72;10444931;28;20033;-80
2021/06/07 03:54:00;;;;;;;25.92;16.90;;;;;;;17.44;100.00;94828.31;10446334;28;20029;-80
2021/06/07 03:59:01;;;;;;;23.33;15.55;;;;;;;17.49;100.00;94836.34;10446525;28;20105;-80
2021/06/07 04:04:01;;;;;;;25.95;16.27;;;;;;;17.59;100.00;94832.53;10446848;28;20030;-81
2021/06/07 04:09:03;;;;;;;32.20;16.43;;;;;;;17.81;100.00;94828.13;10447631;28;20035;-81
2021/06/07 04:14:03;;;;;;;25.33;15.93;;;;;;;17.97;100.00;94818.41;10450135;28;20032;-79
2021/06/07 04:19:03;;;;;;;21.60;15.73;;;;;;;17.90;100.00;94818.88;10450346;28;20028;-79
2021/06/07 04:24:05;;;;;;;25.83;15.87;;;;;;;17.92;100.00;94822.09;10451499;28;20348;-78
2021/06/07 04:29:05;;;;;;;20.67;15.80;;;;;;;17.80;100.00;94824.59;10448822;28;20839;-78
2021/06/07 04:34:06;;;;;;;22.20;15.85;;;;;;;17.81;100.00;94831.63;10447450;28;20012;-78
2021/06/07 04:39:07;;;;;;;24.95;14.95;;;;;;;18.06;100.00;94829.31;10446751;28;20029;-77
2021/06/07 04:44:07;;;;;;;23.65;15.80;;;;;;;18.26;100.00;94825.16;10447540;28;20514;-78
2021/06/07 04:49:08;;;;;;;21.55;14.13;;;;;;;18.58;100.00;94826.56;10446507;28;20104;-79
2021/06/07 04:54:08;;;;;;;23.73;15.50;;;;;;;18.88;100.00;94823.19;10447039;28;20020;-78
2021/06/07 04:59:09;;;;;;;22.92;15.75;;;;;;;19.32;100.00;94829.31;10444139;28;20094;-78
2021/06/07 05:04:09;;;;;;;19.85;14.23;;;;;;;19.51;100.00;94830.84;10444874;28;20032;-78
2021/06/07 05:09:09;;;;;;;29.23;14.17;;;;;;;19.91;100.00;94833.22;10444282;28;20024;-78
2021/06/07 05:14:10;;;;;;;18.23;13.23;;;;;;;20.08;100.00;94835.88;10447039;28;20029;-78
2021/06/07 05:19:10;;;;;;;22.63;14.43;;;;;;;19.80;100.00;94836.34;10445312;28;20021;-78
2021/06/07 05:24:10;;;;;;;22.53;14.77;;;;;;;19.37;100.00;94840.06;10447823;28;20069;-78
2021/06/07 05:29:11;;;;;;;23.80;15.97;;;;;;;19.39;100.00;94837.00;10454048;28;20052;-78
2021/06/07 05:34:11;;;;;;;24.60;15.43;;;;;;;19.84;100.00;94836.47;10454242;28;20060;-79
2021/06/07 05:39:15;;;;;;;19.97;15.23;;;;;;;20.28;100.00;94839.72;10453389;28;20067;-78
2021/06/07 05:44:16;;;;;;;20.00;14.65;;;;;;;20.73;100.00;94849.19;10453273;28;20022;-79
2021/06/07 05:49:17;;;;;;;18.50;13.87;;;;;;;21.05;100.00;94843.28;10453499;28;20502;-79
2021/06/07 05:54:17;;;;;;;21.13;13.23;;;;;;;21.31;100.00;94835.56;10453467;28;20032;-79
2021/06/07 05:59:18;;;;;;;20.50;11.47;;;;;;;21.56;100.00;94835.66;10453499;28;20036;-79
2021/06/07 06:04:18;;;;;;;12.23;8.37;;;;;;;21.96;100.00;94834.97;10452946;28;20789;-79
2021/06/07 06:09:19;;;;;;;16.13;10.27;;;;;;;21.99;100.00;94836.19;10453072;28;20268;-79
2021/06/07 06:14:19;;;;;;;13.90;9.97;;;;;;;22.28;100.00;94823.38;10452300;28;20033;-79
2021/06/07 06:19:23;;;;;;;17.65;10.93;;;;;;;22.43;99.90;94832.84;10453203;28;20033;-78
2021/06/07 06:24:23;;;;;;;14.20;9.75;;;;;;;22.62;100.00;94833.00;10452828;28;20025;-78
2021/06/07 06:29:24;;;;;;;15.77;9.87;;;;;;;23.06;94.83;94829.50;10452495;28;20053;-79
2021/06/07 06:34:24;;;;;;;11.05;7.72;;;;;;;23.13;88.59;94843.41;10452624;28;20021;-79
2021/06/07 06:39:25;;;;;;;16.30;7.50;;;;;;;23.29;89.09;94835.25;10451060;28;20021;-79
2021/06/07 06:44:25;;;;;;;10.50;8.02;;;;;;;24.23;86.23;94834.75;10452552;28;20029;-78
2021/06/07 06:49:26;;;;;;;18.73;7.00;;;;;;;24.11;80.99;94832.13;10451663;28;20052;-79
2021/06/07 06:54:26;;;;;;;12.63;7.23;;;;;;;24.76;80.79;94831.56;10450937;28;20029;-78
2021/06/07 06:59:27;;;;;;;13.15;6.65;;;;;;;25.37;74.79;94838.25;10451322;28;20269;-79
2021/06/07 07:04:27;;;;;;;9.03;6.67;;;;;;;24.70;69.43;94835.78;10451003;28;20466;-79
2021/06/07 07:09:27;;;;;;;10.93;7.47;;;;;;;23.13;86.87;94840.69;10451237;28;20271;-79
2021/06/07 07:14:28;;;;;;;11.30;9.03;;;;;;;22.94;94.35;94844.06;10451847;28;20028;-79
2021/06/07 07:19:28;;;;;;;14.27;8.67;;;;;;;22.23;96.55;94840.03;10451314;28;20028;-79
2021/06/07 07:24:29;;;;;;;16.43;8.90;;;;;;;22.49;96.23;94837.75;10450226;28;20302;-77
2021/06/07 07:29:32;;;;;;;11.50;9.68;;;;;;;22.36;98.58;94836.94;10450342;28;20144;-78
2021/06/07 07:34:33;;;;;;;15.00;9.80;;;;;;;22.50;95.51;94839.31;10451065;28;20025;-79
2021/06/07 07:39:33;;;;;;;14.80;8.15;;;;;;;23.11;92.71;94836.66;10449343;28;20048;-79
2021/06/07 07:44:35;;;;;;;11.27;8.80;;;;;;;23.03;98.30;94833.72;10450105;28;20036;-79
2021/06/07 07:49:36;;;;;;;11.90;7.72;;;;;;;25.48;79.02;94848.63;10450092;28;20317;-79
2021/06/07 07:54:36;;;;;;;11.88;7.13;;;;;;;26.59;68.29;94833.03;10448768;28;20397;-79
2021/06/07 07:59:37;;;;;;;11.85;7.85;;;;;;;26.83;66.99;94831.78;10447148;28;20029;-79
2021/06/07 08:04:38;;;;;;;8.57;7.68;;;;;;;26.33;71.66;94834.69;10447519;28;20094;-79
2021/06/07 08:09:39;;;;;;;10.40;7.53;;;;;;;25.99;69.37;94836.50;10448141;28;20102;-79
2021/06/07 08:14:39;;;;;;;12.32;7.40;;;;;;;25.84;71.47;94840.97;10447656;28;20094;-79
2021/06/07 08:19:39;;;;;;;13.27;9.13;;;;;;;25.54;75.32;94839.72;10448651;28;20499;-79
2021/06/07 08:24:40;;;;;;;12.57;9.23;;;;;;;25.05;81.32;94838.41;10448652;28;20037;-78
2021/06/07 08:29:40;;;;;;;12.75;7.40;;;;;;;25.31;77.89;94841.63;10447847;28;20060;-79
2021/06/07 08:34:41;;;;;;;8.98;7.93;;;;;;;25.21;76.77;94838.31;10448593;28;20376;-79
2021/06/07 08:39:42;;;;;;;12.73;8.93;;;;;;;24.96;76.56;94835.09;10448434;28;20032;-79
2021/06/07 08:44:42;;;;;;;14.15;8.32;;;;;;;24.58;84.11;94839.41;10447838;28;20040;-79
2021/06/07 08:49:43;;;;;;;13.60;9.85;;;;;;;23.50;89.74;94829.50;10449488;28;20032;-79
2021/06/07 08:54:44;;;;;;;10.60;8.57;;;;;;;23.62;91.49;94828.59;10449809;28;20067;-79
2021/06/07 08:59:45;;;;;;;11.98;8.75;;;;;;;23.85;86.85;94827.97;10447099;28;20107;-79
2021/06/07 09:04:48;;;;;;;15.70;8.32;;;;;;;23.39;89.27;94822.94;10442809;28;20114;-79
2021/06/07 09:10:28;;;;;;;13.43;9.43;;;;;;;22.96;97.51;94824.53;10445638;28;20761;-79
2021/06/07 09:15:34;;;;;;;13.50;9.00;;;;;;;22.77;93.27;94820.50;10360734;28;20405;-79
2021/06/07 09:20:36;;;;;;;15.05;8.57;;;;;;;23.35;86.45;94809.13;10431699;28;20408;-79
2021/06/07 09:25:40;;;;;;;14.93;9.40;;;;;;;23.21;88.16;94808.78;10449185;28;20099;-78
2021/06/07 09:31:08;;;;;;;14.82;9.23;;;;;;;23.16;95.16;94798.06;10448934;28;20040;-79
2021/06/07 09:36:22;;;;;;;15.83;9.40;;;;;;;23.00;100.00;94823.47;10444381;28;20063;-79
2021/06/07 09:41:25;;;;;;;16.70;11.95;;;;;;;21.52;100.00;94826.53;10449212;28;20032;-79
2021/06/07 09:46:29;;;;;;;26.35;15.10;;;;;;;20.98;100.00;94846.56;10449471;28;20373;-79
2021/06/07 09:51:29;;;;;;;19.50;9.18;;;;;;;20.43;100.00;94857.44;10449036;28;20056;-79
2021/06/07 09:56:30;;;;;;;15.27;8.57;;;;;;;19.45;100.00;94862.94;10446485;28;20119;-78
2021/06/07 10:01:32;;;;;;;24.33;10.83;;;;;;;18.87;100.00;94860.53;10449573;28;20029;-78
2021/06/07 10:06:36;;;;;;;17.10;9.00;;;;;;;18.25;100.00;94867.88;10448508;28;20778;-79
2021/06/07 10:11:40;;;;;;;20.80;10.23;;;;;;;18.04;100.00;94861.44;10452944;28;20064;-79
2021/06/07 10:16:48;;;;;;;19.77;11.90;;;;;;;17.92;100.00;94849.28;10456657;28;20071;-79
2021/06/07 10:21:49;;;;;;;21.02;11.80;;;;;;;17.54;100.00;94840.81;10456370;28;20028;-79
2021/06/07 10:26:49;;;;;;;21.38;12.85;;;;;;;16.96;100.00;94842.66;10454074;28;20059;-78
2021/06/07 10:31:50;;;;;;;19.73;11.40;;;;;;;17.04;100.00;94844.63;10455798;28;20029;-79
2021/06/07 10:36:51;;;;;;;23.00;13.80;;;;;;;17.09;100.00;94860.75;10454721;28;20029;-78
2021/06/07 10:42:18;;;;;;;19.73;13.88;;;;;;;17.05;100.00;94876.88;10454838;28;20742;-78
2021/06/07 10:47:23;;;;;;;24.10;16.77;;;;;;;17.30;100.00;94871.09;10447734;28;20045;-79
2021/06/07 10:52:27;;;;;;;23.20;17.23;;;;;;;17.57;100.00;94872.81;10457118;28;20024;-79
2021/06/07 10:57:34;;;;;;;30.08;19.52;;;;;;;17.77;100.00;94871.44;10452363;28;20036;-79
2021/06/07 11:02:38;;;;;;;28.23;17.92;;;;;;;17.79;100.00;94871.13;10452557;28;20408;-79
2021/06/07 11:07:43;;;;;;;28.38;16.17;;;;;;;17.69;100.00;94861.34;10451970;28;20025;-79
2021/06/07 11:12:44;;;;;;;19.63;15.65;;;;;;;17.51;100.00;94866.72;10457710;28;20067;-78
2021/06/07 11:17:44;;;;;;;20.05;14.07;;;;;;;17.33;100.00;94865.03;10452442;28;20025;-79
2021/06/07 11:23:05;;;;;;;26.00;17.38;;;;;;;17.54;100.00;94860.66;10449891;28;20094;-78
2021/06/07 11:28:35;;;;;;;22.38;14.98;;;;;;;17.86;100.00;94860.56;10450664;28;20099;-78
2021/06/07 11:33:55;;;;;;;18.95;13.98;;;;;;;18.16;100.00;94848.03;10452489;28;20021;-79
2021/06/07 11:39:01;;;;;;;18.48;14.13;;;;;;;18.38;100.00;94843.56;10451178;28;20725;-79
2021/06/07 11:44:02;;;;;;;19.33;14.20;;;;;;;18.50;100.00;94838.25;10452532;28;20110;-79
2021/06/07 11:49:06;;;;;;;20.25;14.02;;;;;;;18.98;100.00;94838.38;10453048;28;20087;-79
2021/06/07 11:54:27;;;;;;;19.90;13.25;;;;;;;19.63;100.00;94830.94;10452516;28;20025;-78
2021/06/07 11:59:30;;;;;;;17.95;12.10;;;;;;;19.98;100.00;94826.13;10441266;28;20041;-78
2021/06/07 12:04:32;;;;;;;20.17;13.45;;;;;;;20.23;100.00;94828.22;10448302;28;20036;-79
2021/06/07 12:09:35;;;;;;;18.52;12.77;;;;;;;20.40;100.00;94819.09;10450812;28;20082;-79
2021/06/07 12:14:41;;;;;;;12.90;10.70;;;;;;;20.44;100.00;94817.28;10450676;28;20809;-79
2021/06/07 12:19:42;;;;;;;20.65;13.23;;;;;;;20.87;100.00;94818.06;10452324;28;20396;-79
2021/06/07 12:24:57;;;;;;;18.58;12.45;;;;;;;21.38;100.00;94802.22;10452832;28;20108;-78
2021/06/07 12:29:58;;;;;;;15.20;10.88;;;;;;;21.50;100.00;94796.75;10450973;28;20025;-79
2021/06/07 12:35:16;;;;;;;16.60;10.57;;;;;;;21.84;100.00;94791.19;10451374;28;20021;-80
2021/06/07 12:40:37;;;;;;;14.35;10.10;;;;;;;22.05;100.00;94792.97;10451352;28;20279;-80
2021/06/07 12:45:43;;;;;;;17.27;9.93;;;;;;;22.17;100.00;94787.47;10450516;28;20033;-79
2021/06/07 12:50:52;;;;;;;11.63;8.43;;;;;;;22.57;100.00;94774.94;10450331;28;20036;-80
2021/06/07 12:55:55;;;;;;;17.10;9.00;;;;;;;22.23;100.00;94780.63;10451217;28;20083;-79
2021/06/07 13:00:58;;;;;;;11.95;10.00;;;;;;;21.66;100.00;94775.00;10449915;28;20021;-79
2021/06/07 13:06:02;;;;;;;13.68;10.02;;;;;;;21.68;100.00;94775.47;10450216;28;20400;-79
2021/06/07 13:11:06;;;;;;;14.13;10.93;;;;;;;21.28;100.00;94765.19;10450116;28;20033;-79
2021/06/07 13:16:15;;;;;;;10.75;8.68;;;;;;;21.01;100.00;94777.56;10448960;28;20025;-79
2021/06/07 13:21:18;;;;;;;12.05;8.52;;;;;;;21.00;100.00;94765.84;10450201;28;20400;-79
2021/06/07 13:26:21;;;;;;;11.27;8.35;;;;;;;20.99;100.00;94769.69;10446341;28;20056;-79
2021/06/07 13:31:22;;;;;;;10.98;7.85;;;;;;;21.22;100.00;94758.34;10449157;28;20036;-79
2021/06/07 13:36:22;;;;;;;9.10;7.47;;;;;;;21.34;100.00;94763.81;10449501;28;20025;-79
2021/06/07 13:41:23;;;;;;;9.97;7.90;;;;;;;21.11;100.00;94754.47;10449986;28;20275;-79
2021/06/07 13:46:24;;;;;;;17.40;9.27;;;;;;;21.16;100.00;94754.25;10452573;28;20291;-79
2021/06/07 13:51:33;;;;;;;13.07;9.02;;;;;;;20.92;100.00;94760.47;10458059;28;20020;-79
2021/06/07 13:56:36;;;;;;;16.08;9.20;;;;;;;20.95;100.00;94757.84;10455993;28;20021;-78
2021/06/07 14:01:36;;;;;;;12.70;9.60;;;;;;;20.99;100.00;94741.59;10455686;28;20021;-78
2021/06/07 14:06:38;;;;;;;13.13;9.83;;;;;;;20.99;100.00;94747.84;10455736;28;20025;-78
2021/06/07 14:11:44;;;;;;;14.50;10.30;;;;;;;20.97;100.00;94741.13;10455756;28;20807;-78
2021/06/07 14:16:44;;;;;;;11.70;7.85;;;;;;;20.61;100.00;94739.88;10458258;28;20029;-78
2021/06/07 14:27:10;;;;;;;7.28;5.50;;;;;;;20.07;100.00;94748.91;10440003;28;20134;-78
2021/06/07 14:32:10;;;;;;;6.60;5.65;;;;;;;20.20;100.00;94744.28;10453143;28;20820;-78
2021/06/07 14:37:11;;;;;;;9.77;4.70;;;;;;;20.48;100.00;94747.22;10452852;28;20032;-78
2021/06/07 14:42:12;;;;;;;7.33;5.43;;;;;;;20.76;100.00;94752.13;10453544;28;20025;-78
2021/06/07 14:47:14;;;;;;;5.32;3.75;;;;;;;20.47;97.84;94746.44;10455237;28;20287;-79
2021/06/07 14:52:14;;;;;;;7.68;5.82;;;;;;;20.30;100.00;94760.25;10455539;28;20033;-78
2021/06/07 14:57:15;;;;;;;8.20;5.97;;;;;;;19.68;100.00;94757.16;10454826;28;20044;-79
2021/06/07 15:02:15;;;;;;;8.87;6.60;;;;;;;19.54;100.00;94753.88;10455745;28;20801;-79
2021/06/07 15:07:16;;;;;;;9.30;6.37;;;;;;;19.51;100.00;94758.06;10454128;28;20275;-79
2021/06/07 15:12:16;;;;;;;9.80;7.53;;;;;;;19.37;100.00;94766.47;10455799;28;20773;-79
2021/06/07 15:17:18;;;;;;;10.20;8.50;;;;;;;19.12;100.00;94760.81;10455288;28;20267;-79
2021/06/07 15:22:19;;;;;;;11.57;9.38;;;;;;;19.07;100.00;94771.88;10455171;28;20031;-78
2021/06/07 15:27:19;;;;;;;10.93;9.02;;;;;;;19.00;100.00;94770.78;10454510;28;20369;-78
2021/06/07 15:32:20;;;;;;;14.98;9.85;;;;;;;18.75;100.00;94776.78;10454512;28;20118;-79
2021/06/07 15:37:20;;;;;;;11.90;9.55;;;;;;;18.58;100.00;94782.22;10453516;28;20459;-78
2021/06/07 15:42:21;;;;;;;15.20;9.67;;;;;;;18.47;100.00;94780.97;10453408;28;20029;-78
2021/06/07 15:47:21;;;;;;;16.90;10.50;;;;;;;18.52;100.00;94780.81;10415566;28;20032;-78
2021/06/07 15:52:21;;;;;;;11.60;9.30;;;;;;;18.01;100.00;94781.28;10411599;28;20029;-78
2021/06/07 15:57:22;;;;;;;13.90;11.50;;;;;;;17.53;100.00;94785.69;10411227;28;20024;-79
2021/06/07 16:02:22;;;;;;;15.25;11.35;;;;;;;17.04;100.00;94790.31;10411528;28;20025;-78
2021/06/07 16:07:23;;;;;;;20.60;12.10;;;;;;;16.87;100.00;94790.97;10406671;28;20029;-78
2021/06/07 16:12:23;;;;;;;23.53;14.07;;;;;;;16.56;100.00;94795.28;10404678;28;20025;-78
2021/06/07 16:17:24;;;;;;;16.63;12.37;;;;;;;16.41;100.00;94803.81;10408677;28;20056;-78
2021/06/07 16:22:25;;;;;;;25.27;12.93;;;;;;;16.22;100.00;94804.78;10410294;28;20025;-79
2021/06/07 16:27:26;;;;;;;21.25;14.85;;;;;;;16.16;100.00;94816.03;10408421;28;20045;-78
2021/06/07 16:32:26;;;;;;;23.23;15.10;;;;;;;16.09;100.00;94819.19;10410899;28;20025;-79
2021/06/07 16:37:27;;;;;;;27.03;16.53;;;;;;;16.02;100.00;94824.25;10410472;28;20775;-78
2021/06/07 16:42:27;;;;;;;27.42;16.55;;;;;;;16.09;100.00;94816.47;10409370;28;20029;-79
2021/06/07 16:47:27;;;;;;;21.83;14.57;;;;;;;16.06;100.00;94817.06;10407823;28;20033;-80
2021/06/07 16:52:28;;;;;;;18.37;13.10;;;;;;;15.88;100.00;94792.53;10422171;28;20017;-79
2021/06/07 16:57:28;;;;;;;27.17;15.87;;;;;;;15.92;100.00;94791.91;10446346;28;20678;-79
2021/06/07 17:02:28;;;;;;;22.27;13.70;;;;;;;15.94;100.00;94782.38;10407908;28;20272;-79
2021/06/07 17:07:29;;;;;;;24.50;14.90;;;;;;;16.14;100.00;94786.53;10430972;28;20290;-80
2021/06/07 17:12:34;;;;;;;22.23;14.80;;;;;;;16.27;100.00;94811.19;10447553;28;20028;-79
2021/06/07 17:17:37;;;;;;;21.70;13.60;;;;;;;16.33;100.00;94802.63;10420680;28;20022;-82
2021/06/07 17:22:37;;;;;;;18.25;13.07;;;;;;;16.29;100.00;94798.13;10413420;28;20033;-81
2021/06/07 17:27:38;;;;;;;28.67;14.43;;;;;;;16.38;100.00;94798.97;10414941;28;20037;-81
2021/06/07 17:32:39;;;;;;;25.77;14.75;;;;;;;16.50;100.00;94812.00;10449345;28;20705;-81
2021/06/07 17:37:41;;;;;;;27.88;17.67;;;;;;;16.51;100.00;94821.75;10451566;28;20028;-81
2021/06/07 17:42:42;;;;;;;29.00;18.23;;;;;;;16.53;100.00;94827.66;10454308;28;20028;-81
2021/06/07 17:47:43;;;;;;;32.45;19.65;;;;;;;16.50;100.00;94828.28;10436061;28;20508;-82
2021/06/07 17:52:46;;;;;;;26.90;18.60;;;;;;;16.54;100.00;94821.91;10419558;28;20873;-82
2021/06/07 17:57:48;;;;;;;35.13;21.17;;;;;;;16.47;100.00;94818.06;10452504;28;20790;-82
2021/06/07 18:02:49;;;;;;;33.60;21.02;;;;;;;16.48;100.00;94815.03;10449722;28;20496;-81
2021/06/07 18:07:49;;;;;;;31.85;20.77;;;;;;;16.60;100.00;94829.94;10447686;28;20420;-79
2021/06/07 18:12:51;;;;;;;35.78;22.35;;;;;;;16.61;100.00;94835.06;10445239;28;20017;-80
2021/06/07 18:17:53;;;;;;;36.15;23.90;;;;;;;16.60;100.00;94830.75;10446608;28;20021;-80
2021/06/07 18:22:53;;;;;;;42.45;26.80;;;;;;;16.63;100.00;94840.19;10445270;28;20399;-79
2021/06/07 18:27:54;;;;;;;42.27;26.77;;;;;;;16.67;100.00;94850.09;10440919;28;20052;-79
2021/06/07 18:32:55;;;;;;;42.88;25.98;;;;;;;16.67;100.00;94852.00;10448102;28;20651;-79
2021/06/07 18:37:56;;;;;;;36.17;24.45;;;;;;;16.49;100.00;94864.66;10434566;28;20022;-79
2021/06/07 18:42:57;;;;;;;42.20;24.40;;;;;;;16.46;100.00;94860.63;10406201;28;20068;-79
2021/06/07 18:47:58;;;;;;;44.63;25.83;;;;;;;16.51;100.00;94886.88;10432163;28;20373;-79
2021/06/07 18:52:58;;;;;;;46.15;24.75;;;;;;;16.49;100.00;94886.34;10442355;28;20025;-79
2021/06/07 18:57:59;;;;;;;45.03;28.00;;;;;;;16.47;100.00;94891.31;10410404;28;20543;-80
2021/06/07 19:02:59;;;;;;;48.47;28.60;;;;;;;16.37;100.00;94900.47;10410269;28;20268;-79
2021/06/07 19:08:00;;;;;;;28.33;19.13;;;;;;;15.93;100.00;94896.53;10410009;28;20303;-79
2021/06/07 19:13:01;;;;;;;27.35;19.58;;;;;;;15.68;100.00;94891.31;10411498;28;20030;-79
2021/06/07 19:18:03;;;;;;;33.65;20.35;;;;;;;15.51;100.00;94891.88;10411784;28;20028;-79
2021/06/07 19:23:05;;;;;;;23.23;15.88;;;;;;;15.38;100.00;94892.69;10410376;28;20113;-79
2021/06/07 19:28:07;;;;;;;28.83;18.25;;;;;;;15.34;100.00;94897.09;10435934;28;20045;-78
2021/06/07 19:33:08;;;;;;;28.35;18.42;;;;;;;15.14;100.00;94888.25;10454174;28;20536;-79
2021/06/07 19:38:08;;;;;;;23.90;16.65;;;;;;;15.09;100.00;94890.25;10453277;28;20100;-81
2021/06/07 19:43:09;;;;;;;27.33;17.20;;;;;;;15.08;100.00;94908.38;10451191;28;20032;-81
2021/06/07 19:48:09;;;;;;;30.53;17.50;;;;;;;15.10;100.00;94902.66;10428506;28;20033;-81
2021/06/07 19:53:09;;;;;;;32.85;19.42;;;;;;;14.96;100.00;94913.44;10412144;28;20272;-81
2021/06/07 19:58:10;;;;;;;35.60;18.75;;;;;;;14.72;100.00;94892.75;10404990;28;20373;-80
2021/06/07 20:03:10;;;;;;;32.93;22.13;;;;;;;14.58;100.00;94900.78;10401765;28;20025;-82
2021/06/07 20:08:11;;;;;;;34.58;22.55;;;;;;;14.61;100.00;94918.31;10410406;28;20094;-82
2021/06/07 20:13:11;;;;;;;33.03;21.17;;;;;;;14.54;100.00;94918.69;10406261;28;20036;-81
2021/06/07 20:18:11;;;;;;;34.87;22.33;;;;;;;14.64;100.00;94925.88;10401504;28;20261;-81
2021/06/07 20:23:12;;;;;;;32.30;20.73;;;;;;;14.69;100.00;94931.19;10408269;28;20284;-82
2021/06/07 20:28:12;;;;;;;38.35;23.17;;;;;;;14.59;100.00;94931.34;10411365;28;20049;-81
2021/06/07 20:33:14;;;;;;;39.28;23.58;;;;;;;14.53;100.00;94933.31;10410649;28;20056;-81
2021/06/07 20:38:15;;;;;;;31.55;21.90;;;;;;;14.37;100.00;94921.91;10411436;28;20929;-81
2021/06/07 20:43:15;;;;;;;31.13;19.35;;;;;;;14.26;100.00;94915.03;10411489;28;20033;-81
2021/06/07 20:48:16;;;;;;;27.70;17.70;;;;;;;14.21;100.00;94913.22;10410945;28;20108;-81
2021/06/07 20:53:16;;;;;;;31.13;20.77;;;;;;;14.13;100.00;94917.34;10410642;28;20621;-81
2021/06/07 20:58:17;;;;;;;37.58;21.67;;;;;;;14.23;100.00;94924.53;10410616;28;20691;-81
2021/06/07 21:03:18;;;;;;;35.83;22.13;;;;;;;14.14;100.00;94921.66;10410679;28;20037;-82
2021/06/07 21:08:19;;;;;;;29.35;18.35;;;;;;;14.09;100.00;94916.31;10410331;28;20037;-81
2021/06/07 21:13:19;;;;;;;28.00;18.37;;;;;;;14.00;100.00;94899.16;10410296;28;20030;-81
2021/06/07 21:18:19;;;;;;;25.00;16.23;;;;;;;13.95;100.00;94891.13;10410524;28;20040;-81
2021/06/07 21:23:20;;;;;;;25.73;15.53;;;;;;;13.93;100.00;94890.63;10410493;28;20520;-80
2021/06/07 21:28:21;;;;;;;30.87;17.90;;;;;;;13.89;100.00;94886.91;10409820;28;20366;-80
2021/06/07 21:33:22;;;;;;;25.05;15.98;;;;;;;13.82;100.00;94882.63;10409777;28;20045;-81
2021/06/07 21:38:22;;;;;;;31.80;16.08;;;;;;;13.75;100.00;94893.00;10409506;28;20030;-81
2021/06/07 21:43:22;;;;;;;25.05;16.45;;;;;;;13.87;100.00;94889.88;10409543;28;20045;-81
2021/06/07 21:48:26;;;;;;;32.20;17.23;;;;;;;13.92;100.00;94889.00;10409705;28;20033;-81
2021/06/07 21:53:27;;;;;;;33.40;20.10;;;;;;;13.79;100.00;94883.22;10406027;28;20671;-81
2021/06/07 21:58:27;;;;;;;37.63;22.42;;;;;;;13.78;100.00;94892.41;10406306;28;20028;-80
2021/06/07 22:03:27;;;;;;;27.13;19.30;;;;;;;13.87;100.00;94899.88;10405981;28;20124;-80
2021/06/07 22:08:28;;;;;;;28.30;18.88;;;;;;;13.76;100.00;94882.97;10412728;28;20579;-81
2021/06/07 22:13:28;;;;;;;33.37;20.43;;;;;;;13.83;100.00;94891.56;10416762;28;20057;-80
2021/06/07 22:18:29;;;;;;;32.93;18.97;;;;;;;13.84;100.00;94882.34;10416733;28;21079;-81
2021/06/07 22:23:30;;;;;;;33.53;19.60;;;;;;;14.07;100.00;94901.53;10415419;28;20280;-80
2021/06/07 22:28:31;;;;;;;28.42;18.38;;;;;;;14.06;100.00;94900.69;10415066;28;20296;-81
2021/06/07 22:33:33;;;;;;;26.92;17.73;;;;;;;14.13;100.00;94893.03;10417452;28;20033;-82
2021/06/07 22:38:33;;;;;;;29.33;18.67;;;;;;;14.06;100.00;94892.59;10416947;28;20095;-82
2021/06/07 22:43:34;;;;;;;27.67;18.73;;;;;;;14.12;100.00;94879.81;10417149;28;20030;-82
2021/06/07 22:48:34;;;;;;;30.83;19.05;;;;;;;13.93;100.00;94879.81;10416447;28;20291;-82